sensor_id;sensor_type;location;lat;lon;timestamp;pressure;altitude;pressure_sealevel;temperature;humidity
52249;BME280;38541;48.130;8.378;2023-04-02T00:01:49;91990.34;;;5.80;80.80
52249;BME280;38541;48.130;8.378;2023-04-02T00:04:19;91989.78;;;5.78;80.88
52249;BME280;38541;48.130;8.378;2023-04-02T00:06:53;91992.66;;;5.76;80.73
52249;BME280;38541;48.130;8.378;2023-04-02T00:09:24;91993.69;;;5.75;81.01
52249;BME280;38541;48.130;8.378;2023-04-02T00:11:53;91999.66;;;5.76;80.82
52249;BME280;38541;48.130;8.378;2023-04-02T00:14:28;91996.59;;;5.79;80.90
52249;BME280;38541;48.130;8.378;2023-04-02T00:16:57;91999.72;;;5.81;80.84
52249;BME280;38541;48.130;8.378;2023-04-02T00:19:30;91994.25;;;5.82;80.76
52249;BME280;38541;48.130;8.378;2023-04-02T00:22:01;92001.28;;;5.82;80.93
52249;BME280;38541;48.130;8.378;2023-04-02T00:24:28;91999.19;;;5.79;80.99
52249;BME280;38541;48.130;8.378;2023-04-02T00:26:54;91991.91;;;5.81;81.24
52249;BME280;38541;48.130;8.378;2023-04-02T00:29:21;92001.28;;;5.82;81.07
52249;BME280;38541;48.130;8.378;2023-04-02T00:31:52;92005.47;;;5.83;80.97
52249;BME280;38541;48.130;8.378;2023-04-02T00:34:20;91999.97;;;5.79;81.03
52249;BME280;38541;48.130;8.378;2023-04-02T00:36:48;91997.59;;;5.78;81.57
52249;BME280;38541;48.130;8.378;2023-04-02T00:39:20;91997.06;;;5.76;80.94
52249;BME280;38541;48.130;8.378;2023-04-02T00:41:48;92001.75;;;5.74;81.02
52249;BME280;38541;48.130;8.378;2023-04-02T00:44:31;92002.81;;;5.78;81.19
52249;BME280;38541;48.130;8.378;2023-04-02T00:47:32;91999.41;;;5.72;80.93
52249;BME280;38541;48.130;8.378;2023-04-02T00:50:18;91998.88;;;5.70;80.89
52249;BME280;38541;48.130;8.378;2023-04-02T00:52:50;91999.13;;;5.68;81.19
52249;BME280;38541;48.130;8.378;2023-04-02T00:55:29;92004.31;;;5.68;81.12
52249;BME280;38541;48.130;8.378;2023-04-02T00:57:59;92002.53;;;5.69;81.24
52249;BME280;38541;48.130;8.378;2023-04-02T01:00:29;92005.91;;;5.69;81.31
52249;BME280;38541;48.130;8.378;2023-04-02T01:05:51;92001.19;;;5.66;81.28
52249;BME280;38541;48.130;8.378;2023-04-02T01:08:39;92004.31;;;5.68;81.47
52249;BME280;38541;48.130;8.378;2023-04-02T01:14:31;91998.81;;;5.65;81.02
52249;BME280;38541;48.130;8.378;2023-04-02T01:23:03;92002.66;;;5.57;81.02
52249;BME280;38541;48.130;8.378;2023-04-02T01:28:25;92005.28;;;5.57;80.95
52249;BME280;38541;48.130;8.378;2023-04-02T01:30:56;92004.19;;;5.53;80.92
52249;BME280;38541;48.130;8.378;2023-04-02T01:33:28;92002.41;;;5.53;81.22
52249;BME280;38541;48.130;8.378;2023-04-02T01:36:08;92000.31;;;5.55;81.56
52249;BME280;38541;48.130;8.378;2023-04-02T01:38:44;92009.44;;;5.58;81.65
52249;BME280;38541;48.130;8.378;2023-04-02T01:41:25;92013.16;;;5.62;81.59
52249;BME280;38541;48.130;8.378;2023-04-02T01:44:38;92008.47;;;5.64;81.36
52249;BME280;38541;48.130;8.378;2023-04-02T01:47:12;92005.34;;;5.62;81.31
52249;BME280;38541;48.130;8.378;2023-04-02T01:49:41;92010.53;;;5.62;81.46
52249;BME280;38541;48.130;8.378;2023-04-02T01:52:14;92011.84;;;5.65;81.50
52249;BME280;38541;48.130;8.378;2023-04-02T01:54:43;92015.56;;;5.69;81.46
52249;BME280;38541;48.130;8.378;2023-04-02T01:57:11;92011.56;;;5.61;80.68
52249;BME280;38541;48.130;8.378;2023-04-02T01:59:38;92013.66;;;5.59;81.37
52249;BME280;38541;48.130;8.378;2023-04-02T02:02:10;92017.31;;;5.63;81.33
52249;BME280;38541;48.130;8.378;2023-04-02T02:04:39;92018.09;;;5.64;81.11
52249;BME280;38541;48.130;8.378;2023-04-02T02:07:13;92017.25;;;5.58;80.98
52249;BME280;38541;48.130;8.378;2023-04-02T02:09:46;92019.63;;;5.60;80.98
52249;BME280;38541;48.130;8.378;2023-04-02T02:12:14;92021.75;;;5.63;81.10
52249;BME280;38541;48.130;8.378;2023-04-02T02:14:49;92020.19;;;5.67;81.36
52249;BME280;38541;48.130;8.378;2023-04-02T02:17:26;92028.28;;;5.65;81.43
52249;BME280;38541;48.130;8.378;2023-04-02T02:19:55;92025.69;;;5.65;81.27
52249;BME280;38541;48.130;8.378;2023-04-02T02:22:31;92025.13;;;5.63;81.16
52249;BME280;38541;48.130;8.378;2023-04-02T02:25:01;92023.56;;;5.62;80.37
52249;BME280;38541;48.130;8.378;2023-04-02T02:27:51;92022.25;;;5.60;80.56
52249;BME280;38541;48.130;8.378;2023-04-02T02:32:58;92026.38;;;5.55;80.47
52249;BME280;38541;48.130;8.378;2023-04-02T02:35:31;92027.66;;;5.53;80.32
52249;BME280;38541;48.130;8.378;2023-04-02T02:38:21;92032.56;;;5.49;80.31
52249;BME280;38541;48.130;8.378;2023-04-02T02:40:53;92032.56;;;5.49;80.17
52249;BME280;38541;48.130;8.378;2023-04-02T02:43:23;92038.53;;;5.45;80.27
52249;BME280;38541;48.130;8.378;2023-04-02T02:45:52;92032.28;;;5.46;80.23
52249;BME280;38541;48.130;8.378;2023-04-02T02:48:23;92038.47;;;5.39;79.93
52249;BME280;38541;48.130;8.378;2023-04-02T02:53:47;92039.13;;;5.24;80.16
52249;BME280;38541;48.130;8.378;2023-04-02T02:56:15;92038.41;;;5.29;80.75
52249;BME280;38541;48.130;8.378;2023-04-02T02:58:43;92039.66;;;5.26;80.78
52249;BME280;38541;48.130;8.378;2023-04-02T03:01:16;92040.97;;;5.24;80.46
52249;BME280;38541;48.130;8.378;2023-04-02T03:03:45;92041.78;;;5.29;80.46
52249;BME280;38541;48.130;8.378;2023-04-02T03:06:15;92050.69;;;5.34;80.60
52249;BME280;38541;48.130;8.378;2023-04-02T03:08:51;92042.56;;;5.30;80.04
52249;BME280;38541;48.130;8.378;2023-04-02T03:11:46;92041.72;;;5.24;79.77
52249;BME280;38541;48.130;8.378;2023-04-02T03:14:30;92048.13;;;5.11;79.70
52249;BME280;38541;48.130;8.378;2023-04-02T03:17:04;92045.97;;;5.03;79.72
52249;BME280;38541;48.130;8.378;2023-04-02T03:19:42;92058.22;;;5.08;80.32
52249;BME280;38541;48.130;8.378;2023-04-02T03:22:34;92060.09;;;5.12;80.31
52249;BME280;38541;48.130;8.378;2023-04-02T03:25:15;92064.25;;;5.08;79.66
52249;BME280;38541;48.130;8.378;2023-04-02T03:27:48;92061.69;;;5.13;80.29
52249;BME280;38541;48.130;8.378;2023-04-02T03:32:53;92060.66;;;5.14;79.65
52249;BME280;38541;48.130;8.378;2023-04-02T03:35:28;92061.88;;;5.07;80.05
52249;BME280;38541;48.130;8.378;2023-04-02T03:38:10;92055.81;;;5.01;80.09
52249;BME280;38541;48.130;8.378;2023-04-02T03:40:48;92057.97;;;5.04;80.11
52249;BME280;38541;48.130;8.378;2023-04-02T03:43:23;92055.94;;;5.11;80.36
52249;BME280;38541;48.130;8.378;2023-04-02T03:46:01;92063.63;;;5.01;79.89
52249;BME280;38541;48.130;8.378;2023-04-02T03:48:44;92069.16;;;4.82;80.15
52249;BME280;38541;48.130;8.378;2023-04-02T03:51:37;92067.75;;;4.97;80.71
52249;BME280;38541;48.130;8.378;2023-04-02T03:54:12;92073.75;;;4.97;80.44
52249;BME280;38541;48.130;8.378;2023-04-02T03:56:43;92075.59;;;5.02;80.19
52249;BME280;38541;48.130;8.378;2023-04-02T04:02:09;92075.06;;;5.00;79.88
52249;BME280;38541;48.130;8.378;2023-04-02T04:04:39;92076.63;;;5.01;80.18
52249;BME280;38541;48.130;8.378;2023-04-02T04:07:27;92081.38;;;5.04;79.68
52249;BME280;38541;48.130;8.378;2023-04-02T04:09:57;92082.34;;;4.98;79.61
52249;BME280;38541;48.130;8.378;2023-04-02T04:12:38;92091.56;;;4.83;79.81
52249;BME280;38541;48.130;8.378;2023-04-02T04:20:23;92094.34;;;4.77;79.99
52249;BME280;38541;48.130;8.378;2023-04-02T04:22:51;92097.78;;;4.82;80.11
52249;BME280;38541;48.130;8.378;2023-04-02T04:25:28;92097.31;;;4.85;79.59
52249;BME280;38541;48.130;8.378;2023-04-02T04:28:20;92102.75;;;4.84;79.91
52249;BME280;38541;48.130;8.378;2023-04-02T04:31:08;92107.78;;;4.91;80.27
52249;BME280;38541;48.130;8.378;2023-04-02T04:33:48;92102.31;;;4.92;79.51
52249;BME280;38541;48.130;8.378;2023-04-02T04:36:24;92114.13;;;5.00;79.87
52249;BME280;38541;48.130;8.378;2023-04-02T04:39:03;92115.81;;;4.89;79.08
52249;BME280;38541;48.130;8.378;2023-04-02T04:41:36;92125.50;;;4.94;79.54
52249;BME280;38541;48.130;8.378;2023-04-02T04:44:21;92129.28;;;5.03;79.60
52249;BME280;38541;48.130;8.378;2023-04-02T04:49:41;92143.78;;;4.99;78.55
52249;BME280;38541;48.130;8.378;2023-04-02T04:52:20;92141.81;;;5.06;78.88
52249;BME280;38541;48.130;8.378;2023-04-02T04:54:47;92137.91;;;5.09;78.68
52249;BME280;38541;48.130;8.378;2023-04-02T04:57:38;92140.16;;;5.00;78.14
52249;BME280;38541;48.130;8.378;2023-04-02T05:00:18;92136.94;;;4.93;78.54
52249;BME280;38541;48.130;8.378;2023-04-02T05:03:05;92143.78;;;4.99;78.59
52249;BME280;38541;48.130;8.378;2023-04-02T05:05:37;92138.72;;;5.09;78.56
52249;BME280;38541;48.130;8.378;2023-04-02T05:08:18;92142.84;;;5.05;78.23
52249;BME280;38541;48.130;8.378;2023-04-02T05:10:55;92144.16;;;5.08;78.43
52249;BME280;38541;48.130;8.378;2023-04-02T05:13:53;92154.06;;;5.11;77.97
52249;BME280;38541;48.130;8.378;2023-04-02T05:16:25;92150.22;;;5.13;77.96
52249;BME280;38541;48.130;8.378;2023-04-02T05:21:26;92158.03;;;5.13;78.10
52249;BME280;38541;48.130;8.378;2023-04-02T05:26:59;92164.13;;;5.02;77.86
52249;BME280;38541;48.130;8.378;2023-04-02T05:29:35;92157.44;;;5.06;78.61
52249;BME280;38541;48.130;8.378;2023-04-02T05:32:13;92158.88;;;5.19;78.65
52249;BME280;38541;48.130;8.378;2023-04-02T05:34:48;92164.25;;;5.12;77.86
52249;BME280;38541;48.130;8.378;2023-04-02T05:37:18;92168.97;;;5.16;77.97
52249;BME280;38541;48.130;8.378;2023-04-02T05:39:50;92176.38;;;5.24;77.99
52249;BME280;38541;48.130;8.378;2023-04-02T05:42:29;92169.88;;;5.26;77.53
52249;BME280;38541;48.130;8.378;2023-04-02T05:45:16;92181.09;;;5.27;76.77
52249;BME280;38541;48.130;8.378;2023-04-02T05:47:49;92183.75;;;5.32;77.06
52249;BME280;38541;48.130;8.378;2023-04-02T05:50:43;92183.38;;;5.46;76.85
52249;BME280;38541;48.130;8.378;2023-04-02T05:53:25;92193.84;;;5.51;76.57
52249;BME280;38541;48.130;8.378;2023-04-02T05:56:12;92198.34;;;5.55;76.57
52249;BME280;38541;48.130;8.378;2023-04-02T05:58:47;92202.53;;;5.56;76.24
52249;BME280;38541;48.130;8.378;2023-04-02T06:01:31;92204.81;;;5.53;75.56
52249;BME280;38541;48.130;8.378;2023-04-02T06:04:26;92201.19;;;5.54;75.79
52249;BME280;38541;48.130;8.378;2023-04-02T06:07:18;92202.03;;;5.60;75.59
52249;BME280;38541;48.130;8.378;2023-04-02T06:09:59;92209.41;;;5.68;75.61
52249;BME280;38541;48.130;8.378;2023-04-02T06:12:40;92211.47;;;5.66;75.68
52249;BME280;38541;48.130;8.378;2023-04-02T06:15:13;92213.88;;;5.72;76.36
52249;BME280;38541;48.130;8.378;2023-04-02T06:17:52;92220.00;;;5.83;76.47
52249;BME280;38541;48.130;8.378;2023-04-02T06:20:24;92218.22;;;5.89;76.01
52249;BME280;38541;48.130;8.378;2023-04-02T06:26:07;92217.81;;;5.97;75.94
52249;BME280;38541;48.130;8.378;2023-04-02T06:28:42;92214.53;;;5.85;74.77
52249;BME280;38541;48.130;8.378;2023-04-02T06:31:26;92217.69;;;5.87;75.63
52249;BME280;38541;48.130;8.378;2023-04-02T06:33:54;92225.69;;;5.80;75.75
52249;BME280;38541;48.130;8.378;2023-04-02T06:36:25;92229.66;;;5.83;75.97
52249;BME280;38541;48.130;8.378;2023-04-02T06:38:56;92234.19;;;5.93;76.34
52249;BME280;38541;48.130;8.378;2023-04-02T06:41:24;92237.75;;;6.09;75.75
52249;BME280;38541;48.130;8.378;2023-04-02T06:44:14;92241.97;;;6.15;75.67
52249;BME280;38541;48.130;8.378;2023-04-02T06:47:22;92250.13;;;6.24;75.83
52249;BME280;38541;48.130;8.378;2023-04-02T06:50:11;92248.47;;;6.40;75.66
52249;BME280;38541;48.130;8.378;2023-04-02T06:52:46;92250.00;;;6.36;75.11
52249;BME280;38541;48.130;8.378;2023-04-02T06:55:43;92251.06;;;6.40;74.80
52249;BME280;38541;48.130;8.378;2023-04-02T06:58:15;92261.13;;;6.59;75.24
52249;BME280;38541;48.130;8.378;2023-04-02T07:00:45;92257.72;;;6.58;73.98
52249;BME280;38541;48.130;8.378;2023-04-02T07:03:26;92261.72;;;6.71;73.67
52249;BME280;38541;48.130;8.378;2023-04-02T07:05:57;92267.03;;;6.76;72.89
52249;BME280;38541;48.130;8.378;2023-04-02T07:08:25;92261.59;;;6.83;72.93
52249;BME280;38541;48.130;8.378;2023-04-02T07:10:51;92271.31;;;6.93;72.55
52249;BME280;38541;48.130;8.378;2023-04-02T07:13:21;92268.22;;;7.01;72.80
52249;BME280;38541;48.130;8.378;2023-04-02T07:15:50;92265.38;;;7.03;71.62
52249;BME280;38541;48.130;8.378;2023-04-02T07:18:26;92277.34;;;6.98;72.44
52249;BME280;38541;48.130;8.378;2023-04-02T07:20:55;92274.84;;;7.14;73.01
52249;BME280;38541;48.130;8.378;2023-04-02T07:23:25;92279.59;;;7.22;73.47
52249;BME280;38541;48.130;8.378;2023-04-02T07:25:52;92283.47;;;7.14;71.79
52249;BME280;38541;48.130;8.378;2023-04-02T07:28:20;92285.53;;;7.12;72.40
52249;BME280;38541;48.130;8.378;2023-04-02T07:30:48;92303.56;;;7.14;72.75
52249;BME280;38541;48.130;8.378;2023-04-02T07:33:18;92298.88;;;7.16;72.05
52249;BME280;38541;48.130;8.378;2023-04-02T07:35:46;92300.75;;;7.21;72.49
52249;BME280;38541;48.130;8.378;2023-04-02T07:38:13;92307.44;;;7.06;71.23
52249;BME280;38541;48.130;8.378;2023-04-02T07:40:39;92305.66;;;7.12;71.24
52249;BME280;38541;48.130;8.378;2023-04-02T07:43:06;92304.38;;;7.14;71.91
52249;BME280;38541;48.130;8.378;2023-04-02T07:45:33;92308.78;;;7.14;70.85
52249;BME280;38541;48.130;8.378;2023-04-02T07:48:07;92314.31;;;7.18;72.13
52249;BME280;38541;48.130;8.378;2023-04-02T07:50:34;92320.69;;;7.32;71.73
52249;BME280;38541;48.130;8.378;2023-04-02T07:53:01;92320.84;;;7.63;71.93
52249;BME280;38541;48.130;8.378;2023-04-02T07:55:27;92317.31;;;7.95;71.38
52249;BME280;38541;48.130;8.378;2023-04-02T07:57:56;92330.72;;;8.14;69.85
52249;BME280;38541;48.130;8.378;2023-04-02T08:00:24;92326.06;;;8.32;68.66
52249;BME280;38541;48.130;8.378;2023-04-02T08:02:52;92329.00;;;8.46;69.27
52249;BME280;38541;48.130;8.378;2023-04-02T08:05:18;92332.69;;;8.61;69.69
52249;BME280;38541;48.130;8.378;2023-04-02T08:07:55;92330.09;;;8.66;68.64
52249;BME280;38541;48.130;8.378;2023-04-02T08:10:22;92337.97;;;8.66;67.54
52249;BME280;38541;48.130;8.378;2023-04-02T08:12:49;92338.47;;;8.78;68.55
52249;BME280;38541;48.130;8.378;2023-04-02T08:15:16;92342.19;;;8.88;69.13
52249;BME280;38541;48.130;8.378;2023-04-02T08:17:43;92344.78;;;8.72;67.85
52249;BME280;38541;48.130;8.378;2023-04-02T08:20:15;92350.00;;;8.72;66.44
52249;BME280;38541;48.130;8.378;2023-04-02T08:22:44;92348.44;;;8.71;67.16
52249;BME280;38541;48.130;8.378;2023-04-02T08:25:11;92352.03;;;8.49;66.73
52249;BME280;38541;48.130;8.378;2023-04-02T08:27:38;92355.78;;;8.64;68.16
52249;BME280;38541;48.130;8.378;2023-04-02T08:30:07;92356.25;;;8.61;67.47
52249;BME280;38541;48.130;8.378;2023-04-02T08:32:34;92364.19;;;8.81;66.85
52249;BME280;38541;48.130;8.378;2023-04-02T08:35:01;92360.22;;;8.89;66.38
52249;BME280;38541;48.130;8.378;2023-04-02T08:37:27;92370.72;;;8.89;66.07
52249;BME280;38541;48.130;8.378;2023-04-02T08:39:54;92369.66;;;8.90;66.72
52249;BME280;38541;48.130;8.378;2023-04-02T08:47:51;92379.38;;;8.95;65.72
52249;BME280;38541;48.130;8.378;2023-04-02T08:50:43;92376.22;;;8.98;65.73
52249;BME280;38541;48.130;8.378;2023-04-02T08:53:17;92384.59;;;9.00;65.12
52249;BME280;38541;48.130;8.378;2023-04-02T08:56:03;92384.63;;;9.05;65.40
52249;BME280;38541;48.130;8.378;2023-04-02T08:58:40;92380.19;;;9.11;64.61
52249;BME280;38541;48.130;8.378;2023-04-02T09:01:21;92382.03;;;9.21;64.41
52249;BME280;38541;48.130;8.378;2023-04-02T09:03:55;92388.03;;;9.42;65.22
52249;BME280;38541;48.130;8.378;2023-04-02T09:06:23;92387.25;;;9.62;65.17
52249;BME280;38541;48.130;8.378;2023-04-02T09:08:52;92385.13;;;9.64;63.36
52249;BME280;38541;48.130;8.378;2023-04-02T09:11:23;92399.56;;;9.62;62.78
52249;BME280;38541;48.130;8.378;2023-04-02T09:13:55;92396.16;;;9.56;61.74
52249;BME280;38541;48.130;8.378;2023-04-02T09:16:44;92399.84;;;9.29;61.72
52249;BME280;38541;48.130;8.378;2023-04-02T09:19:30;92399.56;;;9.15;63.73
52249;BME280;38541;48.130;8.378;2023-04-02T09:24:32;92400.34;;;9.62;63.53
52249;BME280;38541;48.130;8.378;2023-04-02T09:26:58;92396.69;;;9.58;63.09
52249;BME280;38541;48.130;8.378;2023-04-02T09:29:36;92406.34;;;9.78;65.22
52249;BME280;38541;48.130;8.378;2023-04-02T09:32:17;92411.06;;;9.92;64.87
52249;BME280;38541;48.130;8.378;2023-04-02T09:34:47;92415.00;;;9.84;61.59
52249;BME280;38541;48.130;8.378;2023-04-02T09:37:17;92414.78;;;9.70;61.95
52249;BME280;38541;48.130;8.378;2023-04-02T09:39:44;92412.94;;;9.45;61.94
52249;BME280;38541;48.130;8.378;2023-04-02T09:42:34;92424.47;;;9.69;63.17
52249;BME280;38541;48.130;8.378;2023-04-02T09:45:19;92422.91;;;9.63;62.80
52249;BME280;38541;48.130;8.378;2023-04-02T09:47:46;92429.75;;;9.59;61.85
52249;BME280;38541;48.130;8.378;2023-04-02T09:50:32;92435.47;;;9.82;62.16
52249;BME280;38541;48.130;8.378;2023-04-02T09:53:29;92425.13;;;10.32;61.91
52249;BME280;38541;48.130;8.378;2023-04-02T09:56:20;92435.03;;;10.61;61.71
52249;BME280;38541;48.130;8.378;2023-04-02T09:59:16;92442.38;;;10.64;60.73
52249;BME280;38541;48.130;8.378;2023-04-02T10:01:45;92438.41;;;10.72;59.83
52249;BME280;38541;48.130;8.378;2023-04-02T10:04:39;92444.91;;;10.80;58.80
52249;BME280;38541;48.130;8.378;2023-04-02T10:12:50;92451.38;;;11.03;57.51
52249;BME280;38541;48.130;8.378;2023-04-02T10:15:28;92454.94;;;11.28;58.81
52249;BME280;38541;48.130;8.378;2023-04-02T10:18:12;92462.38;;;11.50;59.62
52249;BME280;38541;48.130;8.378;2023-04-02T10:20:42;92457.63;;;11.58;57.68
52249;BME280;38541;48.130;8.378;2023-04-02T10:23:17;92465.66;;;11.72;57.50
52249;BME280;38541;48.130;8.378;2023-04-02T10:25:52;92469.00;;;11.82;56.45
52249;BME280;38541;48.130;8.378;2023-04-02T10:28:24;92468.75;;;11.79;57.54
52249;BME280;38541;48.130;8.378;2023-04-02T10:31:11;92466.59;;;11.86;57.67
52249;BME280;38541;48.130;8.378;2023-04-02T10:33:46;92471.06;;;11.85;58.68
52249;BME280;38541;48.130;8.378;2023-04-02T10:36:47;92470.72;;;11.63;60.80
52249;BME280;38541;48.130;8.378;2023-04-02T10:39:23;92472.00;;;11.31;63.56
52249;BME280;38541;48.130;8.378;2023-04-02T10:47:03;92481.72;;;10.80;63.41
52249;BME280;38541;48.130;8.378;2023-04-02T10:49:50;92486.31;;;10.38;62.41
52249;BME280;38541;48.130;8.378;2023-04-02T10:52:22;92485.84;;;10.15;62.90
52249;BME280;38541;48.130;8.378;2023-04-02T10:54:58;92482.16;;;9.90;64.61
52249;BME280;38541;48.130;8.378;2023-04-02T11:00:12;92488.75;;;9.88;66.75
52249;BME280;38541;48.130;8.378;2023-04-02T11:03:12;92492.69;;;9.59;66.91
52249;BME280;38541;48.130;8.378;2023-04-02T11:05:46;92503.13;;;9.28;68.95
52249;BME280;38541;48.130;8.378;2023-04-02T11:08:25;92503.13;;;9.28;69.53
52249;BME280;38541;48.130;8.378;2023-04-02T11:11:14;92503.66;;;9.25;71.02
52249;BME280;38541;48.130;8.378;2023-04-02T11:13:57;92509.94;;;9.29;70.76
52249;BME280;38541;48.130;8.378;2023-04-02T11:16:24;92505.75;;;9.28;70.43
52249;BME280;38541;48.130;8.378;2023-04-02T11:21:45;92521.94;;;9.09;70.91
52249;BME280;38541;48.130;8.378;2023-04-02T11:29:51;92535.44;;;8.70;72.68
52249;BME280;38541;48.130;8.378;2023-04-02T11:37:35;92552.50;;;8.40;71.79
52249;BME280;38541;48.130;8.378;2023-04-02T11:40:41;92555.13;;;8.40;72.46
52249;BME280;38541;48.130;8.378;2023-04-02T11:46:29;92562.00;;;8.46;72.82
52249;BME280;38541;48.130;8.378;2023-04-02T11:48:52;92564.91;;;8.50;73.52
52249;BME280;38541;48.130;8.378;2023-04-02T11:53:52;92563.56;;;8.47;74.34
52249;BME280;38541;48.130;8.378;2023-04-02T11:56:46;92571.41;;;8.47;74.20
52249;BME280;38541;48.130;8.378;2023-04-02T11:59:27;92566.97;;;8.48;73.70
52249;BME280;38541;48.130;8.378;2023-04-02T12:02:53;92571.94;;;8.44;74.50
52249;BME280;38541;48.130;8.378;2023-04-02T12:05:23;92574.53;;;8.44;74.95
52249;BME280;38541;48.130;8.378;2023-04-02T12:08:19;92576.19;;;8.50;74.53
52249;BME280;38541;48.130;8.378;2023-04-02T12:11:00;92573.84;;;8.54;74.06
52249;BME280;38541;48.130;8.378;2023-04-02T12:16:08;92578.56;;;8.57;73.20
52249;BME280;38541;48.130;8.378;2023-04-02T12:18:35;92578.56;;;8.57;72.98
52249;BME280;38541;48.130;8.378;2023-04-02T12:21:07;92577.03;;;8.66;73.37
52249;BME280;38541;48.130;8.378;2023-04-02T12:23:35;92577.63;;;8.74;73.73
52249;BME280;38541;48.130;8.378;2023-04-02T12:26:05;92585.28;;;8.85;73.04
52249;BME280;38541;48.130;8.378;2023-04-02T12:28:32;92582.66;;;8.91;72.64
52249;BME280;38541;48.130;8.378;2023-04-02T12:33:36;92595.03;;;9.01;72.10
52249;BME280;38541;48.130;8.378;2023-04-02T12:38:52;92599.00;;;9.08;72.34
52249;BME280;38541;48.130;8.378;2023-04-02T12:41:31;92599.00;;;9.13;71.46
52249;BME280;38541;48.130;8.378;2023-04-02T12:44:04;92599.03;;;9.19;71.51
52249;BME280;38541;48.130;8.378;2023-04-02T12:46:33;92611.06;;;9.14;71.66
52249;BME280;38541;48.130;8.378;2023-04-02T12:51:45;92609.09;;;9.48;71.79
52249;BME280;38541;48.130;8.378;2023-04-02T12:54:16;92604.94;;;9.57;71.22
52249;BME280;38541;48.130;8.378;2023-04-02T12:56:43;92609.66;;;9.65;70.96
52249;BME280;38541;48.130;8.378;2023-04-02T12:59:30;92610.22;;;9.83;70.25
52249;BME280;38541;48.130;8.378;2023-04-02T13:01:57;92616.53;;;10.03;70.38
52249;BME280;38541;48.130;8.378;2023-04-02T13:04:25;92608.16;;;10.21;68.87
52249;BME280;38541;48.130;8.378;2023-04-02T13:06:52;92614.97;;;10.33;68.56
52249;BME280;38541;48.130;8.378;2023-04-02T13:09:29;92613.44;;;10.52;68.44
52249;BME280;38541;48.130;8.378;2023-04-02T13:11:56;92619.69;;;10.77;68.25
52249;BME280;38541;48.130;8.378;2023-04-02T13:14:23;92621.78;;;10.80;65.15
52249;BME280;38541;48.130;8.378;2023-04-02T13:16:51;92630.66;;;11.10;65.72
52249;BME280;38541;48.130;8.378;2023-04-02T13:19:27;92634.19;;;11.46;65.04
52249;BME280;38541;48.130;8.378;2023-04-02T13:21:56;92624.13;;;11.63;63.29
52249;BME280;38541;48.130;8.378;2023-04-02T13:24:26;92619.69;;;11.59;61.38
52249;BME280;38541;48.130;8.378;2023-04-02T13:26:55;92619.66;;;11.64;63.38
52249;BME280;38541;48.130;8.378;2023-04-02T13:29:29;92630.03;;;11.34;63.51
52249;BME280;38541;48.130;8.378;2023-04-02T13:32:01;92628.94;;;11.51;64.87
52249;BME280;38541;48.130;8.378;2023-04-02T13:34:28;92626.69;;;11.79;62.95
52249;BME280;38541;48.130;8.378;2023-04-02T13:36:55;92629.25;;;11.89;63.90
52249;BME280;38541;48.130;8.378;2023-04-02T13:39:23;92635.91;;;11.76;62.75
52249;BME280;38541;48.130;8.378;2023-04-02T13:42:01;92635.81;;;11.92;62.44
52249;BME280;38541;48.130;8.378;2023-04-02T13:44:32;92637.31;;;12.13;63.44
52249;BME280;38541;48.130;8.378;2023-04-02T13:47:02;92631.72;;;12.55;61.50
52249;BME280;38541;48.130;8.378;2023-04-02T13:49:30;92639.06;;;12.58;61.64
52249;BME280;38541;48.130;8.378;2023-04-02T13:52:01;92644.34;;;12.88;59.50
52249;BME280;38541;48.130;8.378;2023-04-02T13:54:42;92632.81;;;12.49;62.99
52249;BME280;38541;48.130;8.378;2023-04-02T13:57:10;92633.84;;;12.18;60.94
52249;BME280;38541;48.130;8.378;2023-04-02T13:59:37;92632.97;;;11.83;62.66
52249;BME280;38541;48.130;8.378;2023-04-02T14:02:16;92634.56;;;11.79;62.22
52249;BME280;38541;48.130;8.378;2023-04-02T14:04:46;92629.38;;;11.63;60.64
52249;BME280;38541;48.130;8.378;2023-04-02T14:07:38;92636.88;;;11.35;57.76
52249;BME280;38541;48.130;8.378;2023-04-02T14:15:55;92641.88;;;11.32;60.22
52249;BME280;38541;48.130;8.378;2023-04-02T14:18:53;92642.72;;;11.17;59.83
52249;BME280;38541;48.130;8.378;2023-04-02T14:26:50;92645.25;;;11.42;60.28
52249;BME280;38541;48.130;8.378;2023-04-02T14:29:34;92638.03;;;11.69;60.56
52249;BME280;38541;48.130;8.378;2023-04-02T14:32:13;92638.69;;;11.95;60.65
52249;BME280;38541;48.130;8.378;2023-04-02T14:34:50;92642.06;;;12.46;59.07
52249;BME280;38541;48.130;8.378;2023-04-02T14:40:20;92647.47;;;13.19;54.85
52249;BME280;38541;48.130;8.378;2023-04-02T14:47:59;92656.50;;;14.05;52.01
52249;BME280;38541;48.130;8.378;2023-04-02T14:50:31;92654.91;;;14.23;50.17
52249;BME280;38541;48.130;8.378;2023-04-02T14:53:08;92660.47;;;14.41;50.00
52249;BME280;38541;48.130;8.378;2023-04-02T14:55:40;92660.47;;;14.41;50.29
52249;BME280;38541;48.130;8.378;2023-04-02T14:58:15;92659.91;;;14.44;52.00
52249;BME280;38541;48.130;8.378;2023-04-02T15:00:52;92667.00;;;15.71;50.66
52249;BME280;38541;48.130;8.378;2023-04-02T15:03:21;92666.22;;;16.13;49.09
52249;BME280;38541;48.130;8.378;2023-04-02T15:06:39;92667.16;;;15.05;49.41
52249;BME280;38541;48.130;8.378;2023-04-02T15:09:26;92668.53;;;14.31;52.66
52249;BME280;38541;48.130;8.378;2023-04-02T15:11:54;92675.59;;;13.78;54.70
52249;BME280;38541;48.130;8.378;2023-04-02T15:14:37;92673.31;;;13.47;56.46
52249;BME280;38541;48.130;8.378;2023-04-02T15:17:05;92677.09;;;12.81;55.09
52249;BME280;38541;48.130;8.378;2023-04-02T15:19:35;92679.47;;;12.48;56.69
52249;BME280;38541;48.130;8.378;2023-04-02T15:22:10;92677.59;;;12.14;57.77
52249;BME280;38541;48.130;8.378;2023-04-02T15:25:05;92680.28;;;12.04;60.08
52249;BME280;38541;48.130;8.378;2023-04-02T15:28:04;92681.13;;;11.89;59.60
52249;BME280;38541;48.130;8.378;2023-04-02T15:30:36;92676.25;;;11.56;59.84
52249;BME280;38541;48.130;8.378;2023-04-02T15:33:41;92683.47;;;11.24;59.52
52249;BME280;38541;48.130;8.378;2023-04-02T15:42:29;92691.94;;;10.90;62.24
52249;BME280;38541;48.130;8.378;2023-04-02T15:48:27;92692.94;;;11.15;61.69
52249;BME280;38541;48.130;8.378;2023-04-02T15:53:32;92695.88;;;10.88;64.09
52249;BME280;38541;48.130;8.378;2023-04-02T15:56:06;92703.25;;;10.85;64.93
52249;BME280;38541;48.130;8.378;2023-04-02T16:02:18;92702.97;;;10.77;64.97